createdAt,value
2022-11-23T00:01:19.023Z,21.48
2022-11-23T00:03:55.279Z,22.05
2022-11-23T00:06:24.802Z,23.48
2022-11-23T00:08:53.945Z,22.95
2022-11-23T00:11:23.028Z,23.52
2022-11-23T00:13:50.872Z,22.05
2022-11-23T00:16:29.779Z,21.38
2022-11-23T00:18:59.358Z,21.70
2022-11-23T00:21:28.947Z,21.65
2022-11-23T00:23:56.528Z,20.65
2022-11-23T00:26:23.908Z,22.58
2022-11-23T00:28:51.433Z,20.02
2022-11-23T00:31:20.654Z,20.85
2022-11-23T00:33:55.924Z,20.05
2022-11-23T00:36:24.825Z,19.55
2022-11-23T00:38:54.728Z,20.38
2022-11-23T00:41:24.626Z,18.70
2022-11-23T00:43:52.524Z,20.60
2022-11-23T00:46:27.975Z,18.63
2022-11-23T00:48:57.193Z,14.35
2022-11-23T00:51:31.767Z,18.90
2022-11-23T00:53:59.837Z,19.08
2022-11-23T00:56:29.159Z,18.02
2022-11-23T00:58:58.435Z,18.33
2022-11-23T01:01:30.893Z,19.33
2022-11-23T01:03:59.454Z,20.13
2022-11-23T01:06:32.202Z,20.35
2022-11-23T01:09:02.700Z,19.60
2022-11-23T01:11:31.365Z,19.83
2022-11-23T01:13:59.308Z,17.52
2022-11-23T01:16:29.386Z,18.33
2022-11-23T01:18:59.152Z,19.05
2022-11-23T01:21:27.760Z,19.98
2022-11-23T01:23:55.736Z,17.98
2022-11-23T01:26:23.460Z,16.63
2022-11-23T01:28:51.588Z,16.63
2022-11-23T01:31:24.172Z,18.17
2022-11-23T01:33:56.554Z,19.05
2022-11-23T01:36:26.832Z,17.20
2022-11-23T01:38:54.462Z,15.30
2022-11-23T01:41:42.467Z,16.27
2022-11-23T01:44:32.393Z,19.58
2022-11-23T01:47:05.544Z,17.42
2022-11-23T01:49:52.617Z,18.73
2022-11-23T01:52:24.909Z,12.65
2022-11-23T01:54:58.128Z,16.13
2022-11-23T01:57:35.539Z,15.98
2022-11-23T02:00:03.785Z,16.65
2022-11-23T02:02:46.043Z,15.70
2022-11-23T02:05:17.195Z,15.35
2022-11-23T02:07:48.102Z,15.93
2022-11-23T02:10:17.002Z,15.02
2022-11-23T02:12:44.280Z,16.63
2022-11-23T02:15:13.231Z,15.85
2022-11-23T02:17:43.098Z,15.85
2022-11-23T02:20:18.158Z,15.50
2022-11-23T02:23:03.801Z,15.43
2022-11-23T02:25:45.973Z,13.63
2022-11-23T02:28:26.364Z,15.52
2022-11-23T02:30:55.601Z,14.65
2022-11-23T02:33:25.482Z,15.07
2022-11-23T02:35:59.707Z,14.93
2022-11-23T02:38:33.399Z,13.82
2022-11-23T02:41:02.144Z,15.05
2022-11-23T02:46:15.398Z,16.83
2022-11-23T02:48:42.526Z,16.02
2022-11-23T02:51:09.974Z,14.10
2022-11-23T02:53:37.188Z,14.13
2022-11-23T02:56:05.017Z,14.60
2022-11-23T02:58:32.173Z,14.57
2022-11-23T03:00:59.755Z,13.57
2022-11-23T03:03:27.089Z,14.90
2022-11-23T03:05:54.577Z,14.55
2022-11-23T03:08:21.780Z,11.93
2022-11-23T03:10:49.768Z,12.68
2022-11-23T03:13:19.121Z,13.38
2022-11-23T03:15:47.313Z,12.88
2022-11-23T03:18:14.519Z,13.93
2022-11-23T03:20:42.085Z,14.00
2022-11-23T03:23:09.421Z,12.85
2022-11-23T03:25:36.920Z,12.95
2022-11-23T03:28:06.037Z,12.75
2022-11-23T03:30:34.209Z,13.73
2022-11-23T03:33:03.689Z,12.88
2022-11-23T03:35:31.680Z,13.85
2022-11-23T03:38:14.231Z,12.73
2022-11-23T03:40:45.886Z,13.60
2022-11-23T03:43:19.740Z,13.63
2022-11-23T03:45:48.165Z,12.95
2022-11-23T03:48:15.966Z,14.23
2022-11-23T03:50:44.892Z,13.82
2022-11-23T03:53:12.329Z,12.70
2022-11-23T03:55:39.953Z,13.65
2022-11-23T03:58:07.401Z,15.13
2022-11-23T04:00:36.586Z,14.73
2022-11-23T04:03:04.535Z,13.65
2022-11-23T04:05:50.256Z,13.38
2022-11-23T04:08:46.700Z,14.60
2022-11-23T04:11:21.955Z,15.00
2022-11-23T04:13:50.007Z,17.35
2022-11-23T04:16:19.041Z,16.52
2022-11-23T04:18:46.366Z,17.05
2022-11-23T04:21:13.891Z,16.05
2022-11-23T04:23:41.132Z,15.90
2022-11-23T04:26:11.457Z,16.15
2022-11-23T04:28:42.201Z,14.43
2022-11-23T04:31:10.012Z,13.77
2022-11-23T04:33:49.817Z,15.90
2022-11-23T04:36:19.552Z,13.55
2022-11-23T04:38:46.879Z,15.10
2022-11-23T04:41:17.844Z,14.98
2022-11-23T04:43:45.445Z,14.05
2022-11-23T04:46:13.304Z,14.20
2022-11-23T04:48:41.664Z,15.88
2022-11-23T04:51:09.258Z,12.93
2022-11-23T04:53:38.556Z,14.65
2022-11-23T04:56:06.743Z,13.52
2022-11-23T04:58:38.077Z,12.70
2022-11-23T05:01:07.270Z,14.30
2022-11-23T05:03:42.837Z,14.53
2022-11-23T05:06:11.035Z,13.57
2022-11-23T05:08:43.036Z,15.07
2022-11-23T05:11:33.416Z,13.35
2022-11-23T05:14:02.543Z,12.95
2022-11-23T05:16:31.523Z,12.45
2022-11-23T05:19:04.343Z,13.75
2022-11-23T05:21:32.655Z,10.40
2022-11-23T05:24:00.461Z,11.95
2022-11-23T05:26:38.109Z,12.13
2022-11-23T05:29:06.011Z,13.05
2022-11-23T05:31:34.201Z,11.90
2022-11-23T05:34:01.700Z,12.35
2022-11-23T05:36:42.213Z,13.40
2022-11-23T05:39:10.486Z,13.65
2022-11-23T05:41:39.407Z,14.23
2022-11-23T05:44:17.908Z,14.63
2022-11-23T05:46:45.675Z,12.73
2022-11-23T05:49:12.970Z,12.70
2022-11-23T05:51:41.173Z,13.68
2022-11-23T05:54:09.218Z,13.57
2022-11-23T05:56:41.489Z,14.73
2022-11-23T05:59:14.630Z,11.80
2022-11-23T06:01:46.155Z,11.13
2022-11-23T06:04:20.425Z,13.48
2022-11-23T06:06:48.113Z,14.20
2022-11-23T06:09:15.818Z,15.02
2022-11-23T06:11:48.324Z,13.13
2022-11-23T06:14:19.530Z,14.45
2022-11-23T06:16:50.633Z,14.68
2022-11-23T06:19:32.214Z,12.10
2022-11-23T06:22:00.215Z,13.27
2022-11-23T06:24:31.381Z,13.40
2022-11-23T06:29:48.275Z,10.70
2022-11-23T06:32:16.427Z,12.73
2022-11-23T06:34:43.762Z,13.05
2022-11-23T06:37:11.447Z,11.27
2022-11-23T06:39:40.190Z,12.43
2022-11-23T06:42:37.303Z,11.95
2022-11-23T06:44:56.363Z,11.27
2022-11-23T06:47:26.417Z,11.93
2022-11-23T06:49:55.944Z,12.73
2022-11-23T06:52:28.100Z,11.75
2022-11-23T06:54:55.478Z,11.48
2022-11-23T06:57:25.455Z,12.75
2022-11-23T06:59:54.004Z,11.35
2022-11-23T07:02:27.391Z,12.80
2022-11-23T07:04:57.512Z,11.05
2022-11-23T07:07:27.314Z,10.50
2022-11-23T07:10:07.258Z,12.65
2022-11-23T07:12:44.526Z,11.60
2022-11-23T07:15:14.991Z,10.88
2022-11-23T07:17:44.719Z,11.98
2022-11-23T07:20:13.433Z,12.10
2022-11-23T07:22:41.532Z,11.82
2022-11-23T07:25:09.458Z,10.60
2022-11-23T07:27:37.808Z,10.45
2022-11-23T07:30:06.026Z,10.77
2022-11-23T07:32:34.408Z,10.65
2022-11-23T07:35:01.874Z,12.70
2022-11-23T07:37:37.705Z,11.57
2022-11-23T07:40:06.225Z,13.65
2022-11-23T07:42:42.878Z,13.20
2022-11-23T07:45:12.483Z,13.25
2022-11-23T07:47:45.692Z,12.15
2022-11-23T07:50:14.394Z,13.88
2022-11-23T07:52:42.180Z,14.40
2022-11-23T07:55:09.639Z,13.52
2022-11-23T07:57:37.343Z,13.50
2022-11-23T08:00:05.479Z,15.10
2022-11-23T08:02:57.982Z,17.10
2022-11-23T08:05:28.340Z,15.55
2022-11-23T08:08:00.457Z,18.08
2022-11-23T08:10:29.420Z,17.90
2022-11-23T08:13:01.440Z,14.77
2022-11-23T08:15:28.799Z,13.10
2022-11-23T08:18:01.108Z,13.77
2022-11-23T08:20:30.231Z,14.20
2022-11-23T08:22:58.035Z,14.65
2022-11-23T08:25:28.100Z,12.82
2022-11-23T08:28:01.159Z,13.40
2022-11-23T08:30:29.830Z,14.23
2022-11-23T08:32:57.495Z,12.77
2022-11-23T08:35:26.231Z,12.23
2022-11-23T08:37:53.794Z,13.23
2022-11-23T08:40:25.321Z,12.93
2022-11-23T08:42:54.842Z,13.63
2022-11-23T08:45:22.492Z,13.93
2022-11-23T08:47:51.132Z,13.25
2022-11-23T08:50:18.589Z,12.52
2022-11-23T08:52:46.231Z,12.32
2022-11-23T08:55:14.207Z,13.10
2022-11-23T08:57:42.118Z,12.23
2022-11-23T09:00:09.941Z,11.25
2022-11-23T09:02:37.494Z,12.18
2022-11-23T09:05:07.056Z,13.98
2022-11-23T09:07:34.621Z,12.85
2022-11-23T09:10:01.934Z,12.93
2022-11-23T09:12:29.498Z,12.75
2022-11-23T09:14:56.716Z,12.02
2022-11-23T09:17:24.367Z,11.57
2022-11-23T09:19:51.540Z,11.00
2022-11-23T09:22:19.164Z,12.65
2022-11-23T09:24:46.634Z,11.05
2022-11-23T09:27:14.350Z,11.40
2022-11-23T09:29:41.570Z,12.20
2022-11-23T09:32:09.045Z,11.30
2022-11-23T09:34:36.509Z,11.77
2022-11-23T09:37:04.039Z,12.07
2022-11-23T09:39:31.205Z,13.15
2022-11-23T09:42:47.227Z,11.82
2022-11-23T09:45:23.342Z,12.00
2022-11-23T09:47:53.618Z,13.70
2022-11-23T09:50:45.607Z,13.60
2022-11-23T09:53:19.283Z,13.93
2022-11-23T09:55:49.434Z,11.82
2022-11-23T09:58:21.269Z,13.68
2022-11-23T10:01:04.699Z,13.85
2022-11-23T10:03:37.026Z,15.20
2022-11-23T10:06:22.857Z,14.02
2022-11-23T10:09:02.638Z,12.90
2022-11-23T10:11:51.845Z,12.27
2022-11-23T10:14:53.657Z,12.90
2022-11-23T10:17:30.082Z,13.05
2022-11-23T10:20:11.603Z,14.20
2022-11-23T10:23:01.632Z,13.55
2022-11-23T10:25:46.577Z,12.27
2022-11-23T10:28:17.158Z,13.02
2022-11-23T10:31:08.632Z,14.52
2022-11-23T10:33:55.012Z,14.38
2022-11-23T10:36:22.516Z,14.60
2022-11-23T10:38:59.761Z,14.40
2022-11-23T10:41:29.479Z,13.82
2022-11-23T10:44:12.521Z,13.27
2022-11-23T10:46:41.090Z,14.07
2022-11-23T10:49:18.652Z,13.27
2022-11-23T10:51:59.669Z,13.80
2022-11-23T10:54:47.056Z,14.00
2022-11-23T10:57:41.528Z,13.02
2022-11-23T11:00:15.155Z,12.15
2022-11-23T11:02:45.961Z,13.63
2022-11-23T11:08:32.229Z,13.15
2022-11-23T11:11:02.013Z,13.88
2022-11-23T11:13:41.877Z,14.00
2022-11-23T11:16:31.351Z,13.40
2022-11-23T11:19:00.084Z,13.27
2022-11-23T11:21:35.678Z,14.23
2022-11-23T11:24:06.965Z,15.63
2022-11-23T11:26:36.099Z,15.57
2022-11-23T11:29:06.257Z,13.95
2022-11-23T11:31:47.612Z,14.80
2022-11-23T11:34:15.101Z,14.25
2022-11-23T11:37:01.608Z,14.52
2022-11-23T11:39:44.480Z,14.70
2022-11-23T11:42:22.247Z,13.75
2022-11-23T11:44:55.359Z,14.25
2022-11-23T11:47:31.990Z,13.93
2022-11-23T11:52:37.817Z,14.07
2022-11-23T11:55:19.982Z,10.05
2022-11-23T11:58:11.075Z,14.02
2022-11-23T12:00:44.812Z,15.38
2022-11-23T12:03:20.368Z,14.10
2022-11-23T12:06:00.305Z,14.88
2022-11-23T12:08:50.035Z,15.70
2022-11-23T12:11:17.574Z,16.25
2022-11-23T12:13:48.681Z,16.60
2022-11-23T12:17:04.294Z,14.95
2022-11-23T12:19:54.183Z,14.30
2022-11-23T12:22:24.587Z,14.77
2022-11-23T12:25:11.711Z,18.23
2022-11-23T12:30:37.586Z,16.63
2022-11-23T12:33:43.462Z,16.33
2022-11-23T12:36:25.823Z,17.48
2022-11-23T12:39:16.771Z,16.73
2022-11-23T12:41:51.863Z,17.10
2022-11-23T12:44:41.890Z,16.40
2022-11-23T12:47:26.389Z,15.10
2022-11-23T12:50:18.573Z,15.80
2022-11-23T12:53:08.960Z,14.93
2022-11-23T12:56:02.011Z,15.52
2022-11-23T12:58:31.576Z,17.00
2022-11-23T13:01:04.855Z,14.88
2022-11-23T13:03:53.513Z,16.08
2022-11-23T13:06:27.941Z,16.55
2022-11-23T13:09:01.049Z,16.23
2022-11-23T13:11:28.562Z,17.92
2022-11-23T13:14:09.728Z,18.15
2022-11-23T13:16:54.825Z,18.00
2022-11-23T13:19:31.170Z,18.63
2022-11-23T13:22:00.010Z,19.70
2022-11-23T13:24:33.659Z,19.58
2022-11-23T13:27:13.563Z,18.55
2022-11-23T13:29:49.956Z,19.98
2022-11-23T13:32:38.679Z,20.40
2022-11-23T13:35:24.259Z,19.27
2022-11-23T13:37:57.727Z,18.27
2022-11-23T13:40:33.322Z,18.35
2022-11-23T13:43:02.498Z,18.38
2022-11-23T13:45:38.748Z,17.48
2022-11-23T13:48:09.429Z,17.15
2022-11-23T13:50:47.669Z,18.08
2022-11-23T13:53:25.833Z,20.17
2022-11-23T13:55:55.958Z,17.13
2022-11-23T13:58:23.729Z,17.92
2022-11-23T14:00:56.868Z,18.27
2022-11-23T14:03:43.257Z,19.88
2022-11-23T14:06:48.141Z,18.40
2022-11-23T14:09:45.157Z,18.35
2022-11-23T14:12:12.594Z,18.88
2022-11-23T14:15:11.160Z,20.92
2022-11-23T14:18:15.689Z,18.83
2022-11-23T14:21:05.015Z,19.02
2022-11-23T14:23:53.016Z,19.20
2022-11-23T14:26:54.588Z,21.05
2022-11-23T14:29:30.493Z,19.52
2022-11-23T14:32:19.766Z,18.73
2022-11-23T14:35:15.229Z,18.83
2022-11-23T14:38:20.483Z,18.65
2022-11-23T14:41:10.192Z,18.40
2022-11-23T14:43:41.715Z,20.17
2022-11-23T14:46:16.528Z,18.13
2022-11-23T14:48:44.173Z,18.25
2022-11-23T14:51:13.195Z,18.45
2022-11-23T14:53:46.944Z,19.17
2022-11-23T14:56:33.744Z,19.80
2022-11-23T14:59:26.228Z,19.67
2022-11-23T15:02:33.764Z,19.90
2022-11-23T15:05:20.983Z,18.02
2022-11-23T15:07:58.348Z,16.65
2022-11-23T15:10:49.102Z,20.70
2022-11-23T15:13:47.320Z,20.35
2022-11-23T15:16:17.002Z,18.70
2022-11-23T15:18:44.532Z,20.65
2022-11-23T15:21:12.055Z,19.70
2022-11-23T15:23:42.711Z,20.33
2022-11-23T15:26:42.044Z,18.83
2022-11-23T15:29:04.732Z,19.63
2022-11-23T15:31:37.157Z,18.83
2022-11-23T15:34:14.832Z,19.83
2022-11-23T15:36:43.506Z,19.77
2022-11-23T15:39:22.035Z,19.83
2022-11-23T15:41:54.032Z,21.90
2022-11-23T15:44:29.616Z,21.30
2022-11-23T15:47:09.005Z,19.60
2022-11-23T15:49:40.614Z,20.35
2022-11-23T15:52:16.529Z,21.85
2022-11-23T15:54:45.296Z,21.67
2022-11-23T15:57:21.119Z,21.67
2022-11-23T15:59:54.849Z,21.63
2022-11-23T16:02:28.730Z,19.63
2022-11-23T16:05:22.618Z,20.73
2022-11-23T16:07:51.164Z,22.60
2022-11-23T16:10:18.763Z,23.05
2022-11-23T16:12:54.854Z,22.77
2022-11-23T16:15:37.733Z,20.13
2022-11-23T16:18:06.866Z,20.80
2022-11-23T16:20:34.405Z,18.48
2022-11-23T16:23:01.905Z,21.10
2022-11-23T16:25:31.944Z,19.35
2022-11-23T16:28:04.811Z,20.17
2022-11-23T16:30:41.711Z,21.65
2022-11-23T16:33:17.438Z,18.83
2022-11-23T16:35:45.575Z,17.53
2022-11-23T16:38:12.892Z,17.95
2022-11-23T16:40:42.090Z,16.88
2022-11-23T16:43:13.616Z,19.65
2022-11-23T16:45:44.314Z,15.98
2022-11-23T16:48:26.946Z,18.67
2022-11-23T16:50:56.283Z,18.60
2022-11-23T16:53:26.992Z,19.35
2022-11-23T16:55:58.183Z,19.40
2022-11-23T16:58:29.705Z,19.02
2022-11-23T17:00:57.581Z,18.67
2022-11-23T17:03:25.107Z,21.02
2022-11-23T17:05:52.766Z,20.77
2022-11-23T17:08:23.598Z,21.42
2022-11-23T17:10:52.338Z,18.70
2022-11-23T17:13:23.596Z,18.52
2022-11-23T17:15:51.999Z,19.50
2022-11-23T17:18:19.624Z,20.98
2022-11-23T17:20:47.322Z,18.98
2022-11-23T17:23:17.461Z,18.55
2022-11-23T17:25:45.145Z,17.63
2022-11-23T17:28:17.498Z,19.58
2022-11-23T17:30:45.439Z,18.58
2022-11-23T17:33:13.202Z,19.45
2022-11-23T17:35:41.361Z,18.02
2022-11-23T17:38:17.020Z,17.42
2022-11-23T17:40:44.781Z,20.73
2022-11-23T17:43:14.549Z,20.77
2022-11-23T17:45:43.804Z,20.48
2022-11-23T17:48:16.115Z,18.85
2022-11-23T17:50:44.100Z,17.20
2022-11-23T17:53:11.479Z,19.58
2022-11-23T17:55:39.257Z,19.73
2022-11-23T17:58:06.554Z,17.52
2022-11-23T18:00:35.337Z,18.33
2022-11-23T18:03:04.034Z,17.98
2022-11-23T18:05:32.276Z,16.33
2022-11-23T18:07:59.765Z,16.90
2022-11-23T18:10:27.455Z,18.00
2022-11-23T18:12:54.794Z,17.83
2022-11-23T18:15:22.415Z,24.77
2022-11-23T18:17:49.817Z,17.58
2022-11-23T18:20:18.063Z,16.63
2022-11-23T18:22:45.366Z,16.33
2022-11-23T18:25:14.507Z,16.13
2022-11-23T18:27:41.948Z,13.40
2022-11-23T18:30:09.644Z,15.60
2022-11-23T18:32:37.598Z,15.88
2022-11-23T18:35:05.324Z,15.38
2022-11-23T18:37:33.095Z,16.20
2022-11-23T18:40:00.401Z,16.92
2022-11-23T18:42:28.269Z,17.27
2022-11-23T18:44:55.624Z,15.55
2022-11-23T18:47:24.167Z,17.67
2022-11-23T18:49:53.159Z,18.42
2022-11-23T18:52:20.890Z,16.13
2022-11-23T18:54:48.230Z,17.17
2022-11-23T18:57:19.356Z,14.38
2022-11-23T18:59:57.877Z,15.55
2022-11-23T19:02:26.534Z,16.83
2022-11-23T19:04:53.889Z,16.27
2022-11-23T19:07:26.554Z,19.08
2022-11-23T19:09:54.621Z,17.95
2022-11-23T19:12:22.217Z,15.57
2022-11-23T19:14:49.952Z,17.25
2022-11-23T19:17:17.989Z,16.45
2022-11-23T19:19:45.211Z,17.48
2022-11-23T19:22:12.669Z,14.50
2022-11-23T19:24:40.310Z,16.17
2022-11-23T19:27:07.803Z,16.88
2022-11-23T19:29:35.360Z,16.75
2022-11-23T19:32:03.424Z,16.77
2022-11-23T19:34:30.783Z,16.38
2022-11-23T19:36:58.455Z,16.23
2022-11-23T19:39:25.704Z,16.83
2022-11-23T19:41:53.381Z,15.93
2022-11-23T19:44:20.665Z,15.65
2022-11-23T19:46:48.119Z,15.63
2022-11-23T19:49:15.788Z,15.65
2022-11-23T19:51:43.259Z,15.40
2022-11-23T19:54:10.501Z,16.73
2022-11-23T19:56:38.074Z,16.83
2022-11-23T19:59:05.451Z,16.58
2022-11-23T20:01:32.946Z,15.80
2022-11-23T20:04:08.738Z,15.07
2022-11-23T20:06:42.201Z,15.13
2022-11-23T20:09:17.044Z,15.63
2022-11-23T20:11:50.334Z,14.40
2022-11-23T20:14:18.554Z,15.05
2022-11-23T20:16:46.082Z,15.48
2022-11-23T20:19:13.293Z,13.75
2022-11-23T20:21:40.811Z,15.25
2022-11-23T20:24:12.034Z,16.60
2022-11-23T20:26:41.254Z,15.50
2022-11-23T20:29:09.688Z,16.67
2022-11-23T20:31:38.787Z,14.40
2022-11-23T20:34:08.098Z,20.98
2022-11-23T20:36:38.764Z,15.75
2022-11-23T20:39:09.872Z,15.20
2022-11-23T20:41:38.006Z,14.15
2022-11-23T20:44:09.629Z,14.35
2022-11-23T20:49:24.635Z,14.15
2022-11-23T20:51:52.481Z,14.30
2022-11-23T20:54:19.752Z,12.30
2022-11-23T20:56:47.654Z,14.88
2022-11-23T20:59:15.136Z,13.68
2022-11-23T21:01:42.725Z,12.95
2022-11-23T21:04:10.172Z,12.88
2022-11-23T21:06:39.797Z,13.48
2022-11-23T21:09:09.549Z,13.02
2022-11-23T21:11:55.662Z,11.82
2022-11-23T21:14:28.304Z,11.82
2022-11-23T21:16:58.629Z,11.63
2022-11-23T21:19:32.792Z,11.88
2022-11-23T21:22:05.644Z,12.63
2022-11-23T21:24:35.029Z,11.82
2022-11-23T21:27:04.900Z,12.15
2022-11-23T21:29:32.739Z,11.80
2022-11-23T21:32:01.577Z,11.38
2022-11-23T21:34:30.385Z,11.85
2022-11-23T21:36:58.412Z,11.95
2022-11-23T21:39:25.977Z,12.35
2022-11-23T21:41:54.520Z,11.60
2022-11-23T21:44:22.909Z,12.65
2022-11-23T21:46:50.777Z,12.18
2022-11-23T21:49:18.322Z,13.25
2022-11-23T21:51:46.190Z,14.52
2022-11-23T21:54:15.710Z,12.20
2022-11-23T21:56:47.314Z,14.77
2022-11-23T21:59:14.752Z,12.20
2022-11-23T22:07:33.542Z,14.43
2022-11-23T22:10:00.983Z,13.40
2022-11-23T22:12:28.729Z,12.73
2022-11-23T22:14:56.117Z,13.43
2022-11-23T22:17:23.760Z,12.68
2022-11-23T22:19:51.083Z,13.80
2022-11-23T22:22:18.622Z,12.07
2022-11-23T22:24:45.926Z,13.02
2022-11-23T22:27:13.797Z,12.55
2022-11-23T22:29:41.154Z,10.93
2022-11-23T22:32:08.699Z,11.90
2022-11-23T22:34:36.386Z,12.63
2022-11-23T22:37:08.872Z,13.00
2022-11-23T22:39:38.230Z,11.95
2022-11-23T22:42:05.889Z,11.25
2022-11-23T22:44:33.386Z,12.63
2022-11-23T22:47:01.194Z,12.88
2022-11-23T22:49:28.634Z,12.68
2022-11-23T22:51:56.250Z,12.02
2022-11-23T22:54:23.527Z,13.15
2022-11-23T22:56:51.162Z,12.95
2022-11-23T22:59:18.488Z,14.90
2022-11-23T23:01:46.147Z,12.63
2022-11-23T23:04:13.467Z,12.82
2022-11-23T23:06:41.111Z,12.55
2022-11-23T23:09:09.999Z,13.27
2022-11-23T23:11:37.621Z,14.25
2022-11-23T23:14:05.741Z,13.40
2022-11-23T23:16:33.981Z,14.23
2022-11-23T23:19:01.854Z,14.68
2022-11-23T23:21:30.140Z,12.57
2022-11-23T23:24:00.304Z,13.02
2022-11-23T23:26:28.808Z,11.80
2022-11-23T23:28:57.657Z,11.48
2022-11-23T23:31:26.148Z,12.77
2022-11-23T23:33:57.146Z,12.20
2022-11-23T23:36:25.428Z,10.85
2022-11-23T23:38:53.014Z,12.57
2022-11-23T23:41:21.228Z,11.25
2022-11-23T23:43:48.541Z,11.57
2022-11-23T23:46:16.359Z,11.70
2022-11-23T23:48:44.142Z,11.55
2022-11-23T23:51:14.924Z,12.15
2022-11-23T23:53:42.340Z,11.20
2022-11-23T23:56:16.209Z,12.13
2022-11-23T23:58:43.919Z,11.45
